sensor_id;sensor_type;location;lat;lon;timestamp;P1;durP1;ratioP1;P2;durP2;ratioP2
70312;SDS011;57723;51.698;5.344;2022-10-22T00:01:31;4.15;;;1.50;;
70312;SDS011;57723;51.698;5.344;2022-10-22T00:03:56;4.07;;;1.37;;
70312;SDS011;57723;51.698;5.344;2022-10-22T00:06:21;4.17;;;1.53;;
70312;SDS011;57723;51.698;5.344;2022-10-22T00:08:47;4.73;;;1.40;;
70312;SDS011;57723;51.698;5.344;2022-10-22T00:11:13;6.77;;;1.73;;
70312;SDS011;57723;51.698;5.344;2022-10-22T00:13:39;5.10;;;1.30;;
70312;SDS011;57723;51.698;5.344;2022-10-22T00:16:04;3.22;;;1.40;;
70312;SDS011;57723;51.698;5.344;2022-10-22T00:18:29;2.83;;;1.47;;
70312;SDS011;57723;51.698;5.344;2022-10-22T00:20:54;4.17;;;1.40;;
70312;SDS011;57723;51.698;5.344;2022-10-22T00:23:20;9.20;;;1.80;;
70312;SDS011;57723;51.698;5.344;2022-10-22T00:25:46;3.33;;;1.50;;
70312;SDS011;57723;51.698;5.344;2022-10-22T00:28:11;4.95;;;1.50;;
70312;SDS011;57723;51.698;5.344;2022-10-22T00:30:36;7.17;;;1.50;;
70312;SDS011;57723;51.698;5.344;2022-10-22T00:33:01;3.37;;;1.40;;
70312;SDS011;57723;51.698;5.344;2022-10-22T00:35:27;2.90;;;1.40;;
70312;SDS011;57723;51.698;5.344;2022-10-22T00:37:52;4.83;;;1.50;;
70312;SDS011;57723;51.698;5.344;2022-10-22T00:40:17;6.33;;;1.50;;
70312;SDS011;57723;51.698;5.344;2022-10-22T00:42:42;4.13;;;1.60;;
70312;SDS011;57723;51.698;5.344;2022-10-22T00:47:43;6.27;;;1.50;;
70312;SDS011;57723;51.698;5.344;2022-10-22T00:50:15;5.57;;;1.52;;
70312;SDS011;57723;51.698;5.344;2022-10-22T00:52:41;2.92;;;1.25;;
70312;SDS011;57723;51.698;5.344;2022-10-22T00:55:08;5.27;;;1.33;;
70312;SDS011;57723;51.698;5.344;2022-10-22T00:57:34;3.22;;;1.58;;
70312;SDS011;57723;51.698;5.344;2022-10-22T01:00:01;5.28;;;1.40;;
70312;SDS011;57723;51.698;5.344;2022-10-22T01:02:26;6.07;;;1.40;;
70312;SDS011;57723;51.698;5.344;2022-10-22T01:04:51;4.30;;;1.50;;
70312;SDS011;57723;51.698;5.344;2022-10-22T01:07:18;3.83;;;1.40;;
70312;SDS011;57723;51.698;5.344;2022-10-22T01:12:41;4.63;;;1.40;;
70312;SDS011;57723;51.698;5.344;2022-10-22T01:18:14;10.57;;;1.52;;
70312;SDS011;57723;51.698;5.344;2022-10-22T01:23:19;3.80;;;1.40;;
70312;SDS011;57723;51.698;5.344;2022-10-22T01:25:49;4.18;;;1.70;;
70312;SDS011;57723;51.698;5.344;2022-10-22T01:28:35;4.10;;;1.48;;
70312;SDS011;57723;51.698;5.344;2022-10-22T01:31:01;4.75;;;1.70;;
70312;SDS011;57723;51.698;5.344;2022-10-22T01:33:27;6.03;;;1.53;;
70312;SDS011;57723;51.698;5.344;2022-10-22T01:35:53;6.25;;;1.95;;
70312;SDS011;57723;51.698;5.344;2022-10-22T01:38:19;3.78;;;1.60;;
70312;SDS011;57723;51.698;5.344;2022-10-22T01:40:45;4.50;;;1.70;;
70312;SDS011;57723;51.698;5.344;2022-10-22T01:43:11;5.90;;;1.60;;
70312;SDS011;57723;51.698;5.344;2022-10-22T01:45:46;4.53;;;1.43;;
70312;SDS011;57723;51.698;5.344;2022-10-22T01:48:28;3.17;;;1.55;;
70312;SDS011;57723;51.698;5.344;2022-10-22T01:56:16;4.90;;;1.60;;
70312;SDS011;57723;51.698;5.344;2022-10-22T02:03:40;3.50;;;1.60;;
70312;SDS011;57723;51.698;5.344;2022-10-22T02:06:12;6.28;;;1.40;;
70312;SDS011;57723;51.698;5.344;2022-10-22T02:08:38;4.00;;;1.43;;
70312;SDS011;57723;51.698;5.344;2022-10-22T02:11:05;4.03;;;1.50;;
70312;SDS011;57723;51.698;5.344;2022-10-22T02:13:32;5.07;;;1.33;;
70312;SDS011;57723;51.698;5.344;2022-10-22T02:16:00;6.10;;;1.73;;
70312;SDS011;57723;51.698;5.344;2022-10-22T02:18:27;5.93;;;1.70;;
70312;SDS011;57723;51.698;5.344;2022-10-22T02:20:54;4.68;;;1.60;;
70312;SDS011;57723;51.698;5.344;2022-10-22T02:23:20;5.90;;;1.60;;
70312;SDS011;57723;51.698;5.344;2022-10-22T02:25:46;5.68;;;2.00;;
70312;SDS011;57723;51.698;5.344;2022-10-22T02:30:38;5.50;;;1.50;;
70312;SDS011;57723;51.698;5.344;2022-10-22T02:33:07;7.35;;;1.90;;
70312;SDS011;57723;51.698;5.344;2022-10-22T02:35:34;4.83;;;1.70;;
70312;SDS011;57723;51.698;5.344;2022-10-22T02:37:59;3.78;;;1.65;;
70312;SDS011;57723;51.698;5.344;2022-10-22T02:40:25;6.00;;;1.53;;
70312;SDS011;57723;51.698;5.344;2022-10-22T02:42:51;6.57;;;1.70;;
70312;SDS011;57723;51.698;5.344;2022-10-22T02:45:24;4.70;;;1.55;;
70312;SDS011;57723;51.698;5.344;2022-10-22T02:47:50;4.13;;;1.57;;
70312;SDS011;57723;51.698;5.344;2022-10-22T02:50:15;8.13;;;1.77;;
70312;SDS011;57723;51.698;5.344;2022-10-22T02:52:41;7.53;;;1.70;;
70312;SDS011;57723;51.698;5.344;2022-10-22T02:55:08;5.87;;;1.77;;
70312;SDS011;57723;51.698;5.344;2022-10-22T02:57:33;5.82;;;1.83;;
70312;SDS011;57723;51.698;5.344;2022-10-22T02:59:58;6.70;;;1.70;;
70312;SDS011;57723;51.698;5.344;2022-10-22T03:02:23;6.20;;;1.77;;
70312;SDS011;57723;51.698;5.344;2022-10-22T03:04:49;6.43;;;1.93;;
70312;SDS011;57723;51.698;5.344;2022-10-22T03:07:14;5.13;;;1.77;;
70312;SDS011;57723;51.698;5.344;2022-10-22T03:09:39;6.60;;;1.63;;
70312;SDS011;57723;51.698;5.344;2022-10-22T03:12:04;5.10;;;1.80;;
70312;SDS011;57723;51.698;5.344;2022-10-22T03:14:30;9.03;;;1.90;;
70312;SDS011;57723;51.698;5.344;2022-10-22T03:16:55;5.70;;;1.90;;
70312;SDS011;57723;51.698;5.344;2022-10-22T03:19:20;5.63;;;1.70;;
70312;SDS011;57723;51.698;5.344;2022-10-22T03:21:55;8.73;;;1.83;;
70312;SDS011;57723;51.698;5.344;2022-10-22T03:24:21;7.97;;;1.83;;
70312;SDS011;57723;51.698;5.344;2022-10-22T03:26:48;6.45;;;2.05;;
70312;SDS011;57723;51.698;5.344;2022-10-22T03:29:18;3.50;;;1.70;;
70312;SDS011;57723;51.698;5.344;2022-10-22T03:31:45;4.28;;;2.10;;
70312;SDS011;57723;51.698;5.344;2022-10-22T03:34:10;7.63;;;1.90;;
70312;SDS011;57723;51.698;5.344;2022-10-22T03:36:37;7.10;;;2.03;;
70312;SDS011;57723;51.698;5.344;2022-10-22T03:39:02;8.13;;;1.90;;
70312;SDS011;57723;51.698;5.344;2022-10-22T03:41:28;5.80;;;1.90;;
70312;SDS011;57723;51.698;5.344;2022-10-22T03:43:53;8.87;;;1.97;;
70312;SDS011;57723;51.698;5.344;2022-10-22T03:46:19;5.97;;;1.87;;
70312;SDS011;57723;51.698;5.344;2022-10-22T03:48:44;6.70;;;1.80;;
70312;SDS011;57723;51.698;5.344;2022-10-22T03:51:11;10.07;;;1.77;;
70312;SDS011;57723;51.698;5.344;2022-10-22T03:53:36;8.13;;;2.05;;
70312;SDS011;57723;51.698;5.344;2022-10-22T03:56:02;5.80;;;2.00;;
70312;SDS011;57723;51.698;5.344;2022-10-22T03:58:27;7.03;;;1.80;;
70312;SDS011;57723;51.698;5.344;2022-10-22T04:00:52;9.93;;;2.00;;
70312;SDS011;57723;51.698;5.344;2022-10-22T04:03:17;4.70;;;2.00;;
70312;SDS011;57723;51.698;5.344;2022-10-22T04:05:42;7.20;;;2.03;;
70312;SDS011;57723;51.698;5.344;2022-10-22T04:08:08;8.00;;;2.07;;
70312;SDS011;57723;51.698;5.344;2022-10-22T04:10:33;4.83;;;1.83;;
70312;SDS011;57723;51.698;5.344;2022-10-22T04:12:58;6.23;;;2.03;;
70312;SDS011;57723;51.698;5.344;2022-10-22T04:15:23;5.57;;;2.27;;
70312;SDS011;57723;51.698;5.344;2022-10-22T04:17:52;6.38;;;2.15;;
70312;SDS011;57723;51.698;5.344;2022-10-22T04:20:17;9.30;;;2.37;;
70312;SDS011;57723;51.698;5.344;2022-10-22T04:22:42;11.97;;;2.00;;
70312;SDS011;57723;51.698;5.344;2022-10-22T04:25:07;6.70;;;1.90;;
70312;SDS011;57723;51.698;5.344;2022-10-22T04:27:33;6.72;;;2.10;;
70312;SDS011;57723;51.698;5.344;2022-10-22T04:29:59;7.90;;;1.73;;
70312;SDS011;57723;51.698;5.344;2022-10-22T04:32:25;7.67;;;2.00;;
70312;SDS011;57723;51.698;5.344;2022-10-22T04:34:50;6.93;;;1.92;;
70312;SDS011;57723;51.698;5.344;2022-10-22T04:37:15;10.00;;;2.17;;
70312;SDS011;57723;51.698;5.344;2022-10-22T04:39:40;7.13;;;2.07;;
70312;SDS011;57723;51.698;5.344;2022-10-22T04:42:05;7.63;;;1.92;;
70312;SDS011;57723;51.698;5.344;2022-10-22T04:44:30;8.00;;;1.80;;
70312;SDS011;57723;51.698;5.344;2022-10-22T04:46:56;7.87;;;2.20;;
70312;SDS011;57723;51.698;5.344;2022-10-22T04:49:21;9.50;;;2.20;;
70312;SDS011;57723;51.698;5.344;2022-10-22T04:51:46;10.07;;;2.00;;
70312;SDS011;57723;51.698;5.344;2022-10-22T04:54:11;7.67;;;1.80;;
70312;SDS011;57723;51.698;5.344;2022-10-22T04:56:36;7.93;;;1.93;;
70312;SDS011;57723;51.698;5.344;2022-10-22T04:59:03;7.40;;;1.50;;
70312;SDS011;57723;51.698;5.344;2022-10-22T05:01:30;6.47;;;1.80;;
70312;SDS011;57723;51.698;5.344;2022-10-22T05:03:56;16.17;;;1.80;;
70312;SDS011;57723;51.698;5.344;2022-10-22T05:06:22;12.95;;;2.13;;
70312;SDS011;57723;51.698;5.344;2022-10-22T05:08:51;8.30;;;1.83;;
70312;SDS011;57723;51.698;5.344;2022-10-22T05:11:18;10.67;;;2.03;;
70312;SDS011;57723;51.698;5.344;2022-10-22T05:13:43;6.20;;;1.80;;
70312;SDS011;57723;51.698;5.344;2022-10-22T05:16:08;6.73;;;2.10;;
70312;SDS011;57723;51.698;5.344;2022-10-22T05:18:34;7.90;;;1.80;;
70312;SDS011;57723;51.698;5.344;2022-10-22T05:21:00;7.03;;;1.80;;
70312;SDS011;57723;51.698;5.344;2022-10-22T05:23:26;8.70;;;1.60;;
70312;SDS011;57723;51.698;5.344;2022-10-22T05:25:53;6.75;;;1.70;;
70312;SDS011;57723;51.698;5.344;2022-10-22T05:28:18;7.22;;;1.90;;
70312;SDS011;57723;51.698;5.344;2022-10-22T05:30:54;6.47;;;2.33;;
70312;SDS011;57723;51.698;5.344;2022-10-22T05:33:19;9.63;;;2.20;;
70312;SDS011;57723;51.698;5.344;2022-10-22T05:35:46;4.87;;;1.47;;
70312;SDS011;57723;51.698;5.344;2022-10-22T05:38:11;5.43;;;1.63;;
70312;SDS011;57723;51.698;5.344;2022-10-22T05:40:36;6.43;;;1.80;;
70312;SDS011;57723;51.698;5.344;2022-10-22T05:43:01;7.27;;;1.70;;
70312;SDS011;57723;51.698;5.344;2022-10-22T05:45:27;6.23;;;1.70;;
70312;SDS011;57723;51.698;5.344;2022-10-22T05:47:52;8.07;;;1.90;;
70312;SDS011;57723;51.698;5.344;2022-10-22T05:50:17;6.37;;;1.50;;
70312;SDS011;57723;51.698;5.344;2022-10-22T05:52:42;7.55;;;1.73;;
70312;SDS011;57723;51.698;5.344;2022-10-22T05:55:07;6.97;;;1.67;;
70312;SDS011;57723;51.698;5.344;2022-10-22T05:57:33;8.50;;;1.80;;
70312;SDS011;57723;51.698;5.344;2022-10-22T06:00:01;8.18;;;2.10;;
70312;SDS011;57723;51.698;5.344;2022-10-22T06:02:26;6.30;;;1.70;;
70312;SDS011;57723;51.698;5.344;2022-10-22T06:04:51;8.60;;;1.80;;
70312;SDS011;57723;51.698;5.344;2022-10-22T06:07:16;11.23;;;2.17;;
70312;SDS011;57723;51.698;5.344;2022-10-22T06:09:41;9.47;;;1.97;;
70312;SDS011;57723;51.698;5.344;2022-10-22T06:12:07;8.37;;;1.90;;
70312;SDS011;57723;51.698;5.344;2022-10-22T06:14:40;6.15;;;2.17;;
70312;SDS011;57723;51.698;5.344;2022-10-22T06:17:05;5.50;;;1.60;;
70312;SDS011;57723;51.698;5.344;2022-10-22T06:19:31;3.30;;;1.50;;
70312;SDS011;57723;51.698;5.344;2022-10-22T06:21:56;5.27;;;1.50;;
70312;SDS011;57723;51.698;5.344;2022-10-22T06:24:21;5.53;;;1.50;;
70312;SDS011;57723;51.698;5.344;2022-10-22T06:26:50;17.83;;;1.70;;
70312;SDS011;57723;51.698;5.344;2022-10-22T06:29:15;5.93;;;1.63;;
70312;SDS011;57723;51.698;5.344;2022-10-22T06:31:40;15.47;;;1.70;;
70312;SDS011;57723;51.698;5.344;2022-10-22T06:34:06;11.80;;;1.60;;
70312;SDS011;57723;51.698;5.344;2022-10-22T06:36:32;14.02;;;3.70;;
70312;SDS011;57723;51.698;5.344;2022-10-22T06:38:58;31.43;;;5.63;;
70312;SDS011;57723;51.698;5.344;2022-10-22T06:41:23;19.83;;;3.63;;
70312;SDS011;57723;51.698;5.344;2022-10-22T06:43:49;14.57;;;3.50;;
70312;SDS011;57723;51.698;5.344;2022-10-22T06:46:15;12.03;;;3.50;;
70312;SDS011;57723;51.698;5.344;2022-10-22T06:48:41;12.05;;;3.20;;
70312;SDS011;57723;51.698;5.344;2022-10-22T06:51:08;13.17;;;3.50;;
70312;SDS011;57723;51.698;5.344;2022-10-22T06:53:34;13.35;;;2.92;;
70312;SDS011;57723;51.698;5.344;2022-10-22T06:56:06;11.50;;;3.13;;
70312;SDS011;57723;51.698;5.344;2022-10-22T06:58:31;10.85;;;2.72;;
70312;SDS011;57723;51.698;5.344;2022-10-22T07:01:04;10.33;;;2.60;;
70312;SDS011;57723;51.698;5.344;2022-10-22T07:03:29;13.18;;;2.65;;
70312;SDS011;57723;51.698;5.344;2022-10-22T07:05:57;10.33;;;2.63;;
70312;SDS011;57723;51.698;5.344;2022-10-22T07:08:22;9.82;;;2.10;;
70312;SDS011;57723;51.698;5.344;2022-10-22T07:10:47;7.47;;;1.70;;
70312;SDS011;57723;51.698;5.344;2022-10-22T07:13:13;8.40;;;2.03;;
70312;SDS011;57723;51.698;5.344;2022-10-22T07:15:38;7.73;;;2.27;;
70312;SDS011;57723;51.698;5.344;2022-10-22T07:18:03;6.57;;;1.60;;
70312;SDS011;57723;51.698;5.344;2022-10-22T07:20:29;7.03;;;1.53;;
70312;SDS011;57723;51.698;5.344;2022-10-22T07:22:54;8.03;;;1.63;;
70312;SDS011;57723;51.698;5.344;2022-10-22T07:25:19;8.60;;;1.80;;
70312;SDS011;57723;51.698;5.344;2022-10-22T07:27:44;7.00;;;1.63;;
70312;SDS011;57723;51.698;5.344;2022-10-22T07:30:09;6.73;;;1.60;;
70312;SDS011;57723;51.698;5.344;2022-10-22T07:32:35;6.43;;;1.60;;
70312;SDS011;57723;51.698;5.344;2022-10-22T07:35:01;7.03;;;1.70;;
70312;SDS011;57723;51.698;5.344;2022-10-22T07:37:26;7.47;;;1.60;;
70312;SDS011;57723;51.698;5.344;2022-10-22T07:39:51;5.50;;;1.60;;
70312;SDS011;57723;51.698;5.344;2022-10-22T07:42:16;7.13;;;1.73;;
70312;SDS011;57723;51.698;5.344;2022-10-22T07:44:41;8.23;;;1.60;;
70312;SDS011;57723;51.698;5.344;2022-10-22T07:47:09;8.02;;;1.90;;
70312;SDS011;57723;51.698;5.344;2022-10-22T07:49:34;5.23;;;1.40;;
70312;SDS011;57723;51.698;5.344;2022-10-22T07:51:59;6.10;;;1.60;;
70312;SDS011;57723;51.698;5.344;2022-10-22T07:54:24;6.47;;;1.57;;
70312;SDS011;57723;51.698;5.344;2022-10-22T07:56:50;7.23;;;1.70;;
70312;SDS011;57723;51.698;5.344;2022-10-22T07:59:15;7.87;;;1.43;;
70312;SDS011;57723;51.698;5.344;2022-10-22T08:01:40;4.43;;;1.43;;
70312;SDS011;57723;51.698;5.344;2022-10-22T08:04:05;7.53;;;1.50;;
70312;SDS011;57723;51.698;5.344;2022-10-22T08:06:32;5.50;;;1.50;;
70312;SDS011;57723;51.698;5.344;2022-10-22T08:08:57;5.10;;;1.37;;
70312;SDS011;57723;51.698;5.344;2022-10-22T08:11:22;6.97;;;1.60;;
70312;SDS011;57723;51.698;5.344;2022-10-22T08:13:48;4.30;;;1.60;;
70312;SDS011;57723;51.698;5.344;2022-10-22T08:16:13;7.80;;;1.80;;
70312;SDS011;57723;51.698;5.344;2022-10-22T08:18:38;7.70;;;1.43;;
70312;SDS011;57723;51.698;5.344;2022-10-22T08:21:04;3.90;;;1.30;;
70312;SDS011;57723;51.698;5.344;2022-10-22T08:23:29;6.30;;;1.50;;
70312;SDS011;57723;51.698;5.344;2022-10-22T08:25:55;10.93;;;1.87;;
70312;SDS011;57723;51.698;5.344;2022-10-22T08:28:20;6.43;;;1.80;;
70312;SDS011;57723;51.698;5.344;2022-10-22T08:30:46;7.03;;;1.67;;
70312;SDS011;57723;51.698;5.344;2022-10-22T08:33:12;8.57;;;1.40;;
70312;SDS011;57723;51.698;5.344;2022-10-22T08:35:37;9.70;;;1.33;;
70312;SDS011;57723;51.698;5.344;2022-10-22T08:38:02;6.43;;;1.30;;
70312;SDS011;57723;51.698;5.344;2022-10-22T08:40:32;7.37;;;1.43;;
70312;SDS011;57723;51.698;5.344;2022-10-22T08:45:54;7.33;;;1.30;;
70312;SDS011;57723;51.698;5.344;2022-10-22T08:48:34;5.72;;;1.40;;
70312;SDS011;57723;51.698;5.344;2022-10-22T08:51:03;5.70;;;1.60;;
70312;SDS011;57723;51.698;5.344;2022-10-22T08:53:31;7.10;;;1.33;;
70312;SDS011;57723;51.698;5.344;2022-10-22T08:55:58;9.05;;;1.42;;
70312;SDS011;57723;51.698;5.344;2022-10-22T09:00:57;6.70;;;1.58;;
70312;SDS011;57723;51.698;5.344;2022-10-22T09:06:20;10.07;;;1.48;;
70312;SDS011;57723;51.698;5.344;2022-10-22T09:08:46;5.95;;;1.50;;
70312;SDS011;57723;51.698;5.344;2022-10-22T09:13:38;7.78;;;1.33;;
70312;SDS011;57723;51.698;5.344;2022-10-22T09:24:11;6.65;;;1.17;;
70312;SDS011;57723;51.698;5.344;2022-10-22T09:26:37;4.85;;;1.10;;
70312;SDS011;57723;51.698;5.344;2022-10-22T09:29:03;6.87;;;1.30;;
70312;SDS011;57723;51.698;5.344;2022-10-22T09:31:31;6.13;;;1.45;;
70312;SDS011;57723;51.698;5.344;2022-10-22T09:33:57;5.73;;;1.43;;
70312;SDS011;57723;51.698;5.344;2022-10-22T09:36:23;6.10;;;1.17;;
70312;SDS011;57723;51.698;5.344;2022-10-22T09:38:50;7.20;;;1.63;;
70312;SDS011;57723;51.698;5.344;2022-10-22T09:41:16;3.83;;;1.38;;
70312;SDS011;57723;51.698;5.344;2022-10-22T09:43:41;5.80;;;1.57;;
70312;SDS011;57723;51.698;5.344;2022-10-22T09:46:07;5.70;;;1.63;;
70312;SDS011;57723;51.698;5.344;2022-10-22T09:48:39;7.57;;;1.88;;
70312;SDS011;57723;51.698;5.344;2022-10-22T09:53:34;9.20;;;1.70;;
70312;SDS011;57723;51.698;5.344;2022-10-22T09:56:00;8.00;;;1.47;;
70312;SDS011;57723;51.698;5.344;2022-10-22T09:58:39;5.10;;;1.23;;
70312;SDS011;57723;51.698;5.344;2022-10-22T10:01:05;6.82;;;1.55;;
70312;SDS011;57723;51.698;5.344;2022-10-22T10:03:31;5.20;;;1.20;;
70312;SDS011;57723;51.698;5.344;2022-10-22T10:05:58;5.18;;;1.33;;
70312;SDS011;57723;51.698;5.344;2022-10-22T10:08:23;6.97;;;1.00;;
70312;SDS011;57723;51.698;5.344;2022-10-22T10:10:56;6.37;;;1.20;;
70312;SDS011;57723;51.698;5.344;2022-10-22T10:19:10;5.18;;;1.30;;
70312;SDS011;57723;51.698;5.344;2022-10-22T10:31:38;8.23;;;1.92;;
70312;SDS011;57723;51.698;5.344;2022-10-22T10:39:09;9.40;;;1.40;;
70312;SDS011;57723;51.698;5.344;2022-10-22T10:49:29;8.48;;;1.73;;
70312;SDS011;57723;51.698;5.344;2022-10-22T10:52:08;7.18;;;1.50;;
70312;SDS011;57723;51.698;5.344;2022-10-22T10:54:42;8.63;;;1.40;;
70312;SDS011;57723;51.698;5.344;2022-10-22T10:57:15;6.72;;;1.88;;
70312;SDS011;57723;51.698;5.344;2022-10-22T10:59:49;8.23;;;1.23;;
70312;SDS011;57723;51.698;5.344;2022-10-22T11:05:27;6.85;;;1.35;;
70312;SDS011;57723;51.698;5.344;2022-10-22T11:07:45;4.57;;;1.13;;
70312;SDS011;57723;51.698;5.344;2022-10-22T11:10:27;7.40;;;1.45;;
70312;SDS011;57723;51.698;5.344;2022-10-22T11:12:54;9.43;;;1.40;;
70312;SDS011;57723;51.698;5.344;2022-10-22T11:15:29;7.95;;;1.85;;
70312;SDS011;57723;51.698;5.344;2022-10-22T11:17:58;4.40;;;1.58;;
70312;SDS011;57723;51.698;5.344;2022-10-22T11:23:13;9.07;;;1.40;;
70312;SDS011;57723;51.698;5.344;2022-10-22T11:25:42;7.35;;;1.45;;
70312;SDS011;57723;51.698;5.344;2022-10-22T11:28:10;7.30;;;1.42;;
70312;SDS011;57723;51.698;5.344;2022-10-22T11:30:37;8.13;;;1.80;;
70312;SDS011;57723;51.698;5.344;2022-10-22T11:33:05;8.73;;;1.40;;
70312;SDS011;57723;51.698;5.344;2022-10-22T11:35:34;10.32;;;1.63;;
70312;SDS011;57723;51.698;5.344;2022-10-22T11:38:02;11.30;;;1.65;;
70312;SDS011;57723;51.698;5.344;2022-10-22T11:43:06;6.97;;;1.58;;
70312;SDS011;57723;51.698;5.344;2022-10-22T11:45:36;7.40;;;1.58;;
70312;SDS011;57723;51.698;5.344;2022-10-22T11:53:05;12.52;;;1.90;;
70312;SDS011;57723;51.698;5.344;2022-10-22T12:08:37;5.57;;;1.38;;
70312;SDS011;57723;51.698;5.344;2022-10-22T12:16:21;7.13;;;1.90;;
70312;SDS011;57723;51.698;5.344;2022-10-22T12:18:54;7.80;;;1.40;;
70312;SDS011;57723;51.698;5.344;2022-10-22T12:21:20;7.53;;;1.65;;
70312;SDS011;57723;51.698;5.344;2022-10-22T12:23:46;6.13;;;1.40;;
70312;SDS011;57723;51.698;5.344;2022-10-22T12:26:21;7.13;;;1.30;;
70312;SDS011;57723;51.698;5.344;2022-10-22T12:28:47;6.50;;;1.70;;
70312;SDS011;57723;51.698;5.344;2022-10-22T12:31:15;4.47;;;1.17;;
70312;SDS011;57723;51.698;5.344;2022-10-22T12:33:40;8.57;;;1.53;;
70312;SDS011;57723;51.698;5.344;2022-10-22T12:36:06;10.43;;;1.47;;
70312;SDS011;57723;51.698;5.344;2022-10-22T12:38:31;5.60;;;1.30;;
70312;SDS011;57723;51.698;5.344;2022-10-22T12:40:56;7.70;;;1.40;;
70312;SDS011;57723;51.698;5.344;2022-10-22T12:43:25;7.33;;;1.90;;
70312;SDS011;57723;51.698;5.344;2022-10-22T12:45:51;8.70;;;1.53;;
70312;SDS011;57723;51.698;5.344;2022-10-22T12:48:26;6.50;;;1.80;;
70312;SDS011;57723;51.698;5.344;2022-10-22T12:50:57;5.97;;;1.40;;
70312;SDS011;57723;51.698;5.344;2022-10-22T12:55:51;6.90;;;1.40;;
70312;SDS011;57723;51.698;5.344;2022-10-22T12:58:20;8.70;;;1.60;;
70312;SDS011;57723;51.698;5.344;2022-10-22T13:00:47;6.57;;;1.40;;
70312;SDS011;57723;51.698;5.344;2022-10-22T13:03:26;7.95;;;1.45;;
70312;SDS011;57723;51.698;5.344;2022-10-22T13:05:51;8.27;;;1.70;;
70312;SDS011;57723;51.698;5.344;2022-10-22T13:08:19;12.60;;;1.83;;
70312;SDS011;57723;51.698;5.344;2022-10-22T13:10:52;7.28;;;1.70;;
70312;SDS011;57723;51.698;5.344;2022-10-22T13:18:45;7.73;;;1.50;;
70312;SDS011;57723;51.698;5.344;2022-10-22T13:21:27;6.25;;;1.60;;
70312;SDS011;57723;51.698;5.344;2022-10-22T13:23:54;8.50;;;1.30;;
70312;SDS011;57723;51.698;5.344;2022-10-22T13:26:20;7.90;;;1.73;;
70312;SDS011;57723;51.698;5.344;2022-10-22T13:28:49;6.10;;;1.40;;
70312;SDS011;57723;51.698;5.344;2022-10-22T13:31:18;8.77;;;1.50;;
70312;SDS011;57723;51.698;5.344;2022-10-22T13:33:45;4.47;;;1.20;;
70312;SDS011;57723;51.698;5.344;2022-10-22T13:36:13;6.30;;;1.33;;
70312;SDS011;57723;51.698;5.344;2022-10-22T13:38:42;5.85;;;1.23;;
70312;SDS011;57723;51.698;5.344;2022-10-22T13:41:21;5.25;;;1.48;;
70312;SDS011;57723;51.698;5.344;2022-10-22T13:43:47;5.63;;;1.40;;
70312;SDS011;57723;51.698;5.344;2022-10-22T13:46:12;5.53;;;1.23;;
70312;SDS011;57723;51.698;5.344;2022-10-22T13:48:37;6.80;;;1.40;;
70312;SDS011;57723;51.698;5.344;2022-10-22T13:51:03;3.20;;;1.20;;
70312;SDS011;57723;51.698;5.344;2022-10-22T13:53:28;6.00;;;1.33;;
70312;SDS011;57723;51.698;5.344;2022-10-22T13:55:54;7.10;;;1.52;;
70312;SDS011;57723;51.698;5.344;2022-10-22T13:58:20;5.93;;;1.23;;
70312;SDS011;57723;51.698;5.344;2022-10-22T14:00:48;6.47;;;1.40;;
70312;SDS011;57723;51.698;5.344;2022-10-22T14:03:14;5.30;;;1.30;;
70312;SDS011;57723;51.698;5.344;2022-10-22T14:08:47;5.07;;;1.30;;
70312;SDS011;57723;51.698;5.344;2022-10-22T14:11:13;4.57;;;1.33;;
70312;SDS011;57723;51.698;5.344;2022-10-22T14:13:38;5.43;;;1.30;;
70312;SDS011;57723;51.698;5.344;2022-10-22T14:16:04;8.13;;;1.30;;
70312;SDS011;57723;51.698;5.344;2022-10-22T14:18:30;3.17;;;1.08;;
70312;SDS011;57723;51.698;5.344;2022-10-22T14:20:58;6.37;;;1.30;;
70312;SDS011;57723;51.698;5.344;2022-10-22T14:23:25;3.75;;;1.00;;
70312;SDS011;57723;51.698;5.344;2022-10-22T14:25:51;5.15;;;1.30;;
70312;SDS011;57723;51.698;5.344;2022-10-22T14:28:16;5.60;;;1.30;;
70312;SDS011;57723;51.698;5.344;2022-10-22T14:30:42;6.40;;;1.53;;
70312;SDS011;57723;51.698;5.344;2022-10-22T14:33:14;4.43;;;1.20;;
70312;SDS011;57723;51.698;5.344;2022-10-22T14:35:40;5.28;;;1.27;;
70312;SDS011;57723;51.698;5.344;2022-10-22T14:38:06;7.30;;;1.60;;
70312;SDS011;57723;51.698;5.344;2022-10-22T14:40:31;5.67;;;1.33;;
70312;SDS011;57723;51.698;5.344;2022-10-22T14:42:56;5.57;;;1.40;;
70312;SDS011;57723;51.698;5.344;2022-10-22T14:45:22;10.10;;;1.70;;
70312;SDS011;57723;51.698;5.344;2022-10-22T14:47:48;7.35;;;1.48;;
70312;SDS011;57723;51.698;5.344;2022-10-22T14:50:14;5.53;;;1.70;;
70312;SDS011;57723;51.698;5.344;2022-10-22T14:52:39;7.13;;;1.47;;
70312;SDS011;57723;51.698;5.344;2022-10-22T14:55:05;7.87;;;1.50;;
70312;SDS011;57723;51.698;5.344;2022-10-22T14:57:32;7.82;;;1.35;;
70312;SDS011;57723;51.698;5.344;2022-10-22T14:59:58;5.93;;;1.37;;
70312;SDS011;57723;51.698;5.344;2022-10-22T15:02:23;7.17;;;1.60;;
70312;SDS011;57723;51.698;5.344;2022-10-22T15:04:50;4.95;;;1.40;;
70312;SDS011;57723;51.698;5.344;2022-10-22T15:07:15;5.40;;;1.43;;
70312;SDS011;57723;51.698;5.344;2022-10-22T15:09:40;5.53;;;1.33;;
70312;SDS011;57723;51.698;5.344;2022-10-22T15:12:06;5.10;;;1.20;;
70312;SDS011;57723;51.698;5.344;2022-10-22T15:14:31;5.50;;;1.40;;
70312;SDS011;57723;51.698;5.344;2022-10-22T15:16:57;6.37;;;1.20;;
70312;SDS011;57723;51.698;5.344;2022-10-22T15:19:22;4.25;;;1.10;;
70312;SDS011;57723;51.698;5.344;2022-10-22T15:21:47;5.10;;;1.30;;
70312;SDS011;57723;51.698;5.344;2022-10-22T15:24:13;5.30;;;1.40;;
70312;SDS011;57723;51.698;5.344;2022-10-22T15:26:38;5.47;;;1.37;;
70312;SDS011;57723;51.698;5.344;2022-10-22T15:29:03;5.80;;;1.30;;
70312;SDS011;57723;51.698;5.344;2022-10-22T15:34:06;6.32;;;1.10;;
70312;SDS011;57723;51.698;5.344;2022-10-22T15:36:31;5.83;;;1.10;;
70312;SDS011;57723;51.698;5.344;2022-10-22T15:38:56;2.97;;;1.03;;
70312;SDS011;57723;51.698;5.344;2022-10-22T15:41:23;4.07;;;1.27;;
70312;SDS011;57723;51.698;5.344;2022-10-22T15:43:48;8.55;;;1.33;;
70312;SDS011;57723;51.698;5.344;2022-10-22T15:46:15;4.47;;;1.30;;
70312;SDS011;57723;51.698;5.344;2022-10-22T15:48:40;7.18;;;1.40;;
70312;SDS011;57723;51.698;5.344;2022-10-22T15:51:13;4.03;;;1.03;;
70312;SDS011;57723;51.698;5.344;2022-10-22T15:53:38;4.85;;;1.30;;
70312;SDS011;57723;51.698;5.344;2022-10-22T15:56:04;3.83;;;1.20;;
70312;SDS011;57723;51.698;5.344;2022-10-22T15:58:30;5.25;;;1.30;;
70312;SDS011;57723;51.698;5.344;2022-10-22T16:01:02;5.33;;;1.20;;
70312;SDS011;57723;51.698;5.344;2022-10-22T16:03:27;5.07;;;1.50;;
70312;SDS011;57723;51.698;5.344;2022-10-22T16:05:52;6.90;;;1.70;;
70312;SDS011;57723;51.698;5.344;2022-10-22T16:08:18;5.03;;;1.30;;
70312;SDS011;57723;51.698;5.344;2022-10-22T16:10:44;5.97;;;1.58;;
70312;SDS011;57723;51.698;5.344;2022-10-22T16:13:09;3.90;;;1.60;;
70312;SDS011;57723;51.698;5.344;2022-10-22T16:15:34;6.47;;;1.50;;
70312;SDS011;57723;51.698;5.344;2022-10-22T16:18:00;7.47;;;1.30;;
70312;SDS011;57723;51.698;5.344;2022-10-22T16:20:25;4.90;;;1.10;;
70312;SDS011;57723;51.698;5.344;2022-10-22T16:22:50;7.03;;;1.30;;
70312;SDS011;57723;51.698;5.344;2022-10-22T16:25:15;4.37;;;1.20;;
70312;SDS011;57723;51.698;5.344;2022-10-22T16:27:40;5.30;;;1.17;;
70312;SDS011;57723;51.698;5.344;2022-10-22T16:30:06;4.60;;;1.40;;
70312;SDS011;57723;51.698;5.344;2022-10-22T16:32:32;7.90;;;1.73;;
70312;SDS011;57723;51.698;5.344;2022-10-22T16:34:57;8.93;;;1.77;;
70312;SDS011;57723;51.698;5.344;2022-10-22T16:37:22;4.60;;;1.50;;
70312;SDS011;57723;51.698;5.344;2022-10-22T16:39:48;6.13;;;1.50;;
70312;SDS011;57723;51.698;5.344;2022-10-22T16:42:14;6.73;;;1.70;;